sensor_id;sensor_type;location;lat;lon;timestamp;pressure;altitude;pressure_sealevel;temperature;humidity
35151;BME280;55720;51.972;4.624;2022-12-22T00:01:39;100732.09;;;8.88;100.00
35151;BME280;55720;51.972;4.624;2022-12-22T00:04:23;100729.81;;;8.90;100.00
35151;BME280;55720;51.972;4.624;2022-12-22T00:07:07;100725.81;;;8.87;100.00
35151;BME280;55720;51.972;4.624;2022-12-22T00:09:51;100719.69;;;8.90;100.00
35151;BME280;55720;51.972;4.624;2022-12-22T00:12:35;100727.56;;;8.92;100.00
35151;BME280;55720;51.972;4.624;2022-12-22T00:15:20;100732.56;;;8.90;100.00
35151;BME280;55720;51.972;4.624;2022-12-22T00:18:04;100729.97;;;8.94;100.00
35151;BME280;55720;51.972;4.624;2022-12-22T00:20:49;100719.22;;;8.88;100.00
35151;BME280;55720;51.972;4.624;2022-12-22T00:23:33;100725.31;;;8.94;100.00
35151;BME280;55720;51.972;4.624;2022-12-22T00:26:18;100721.13;;;8.97;100.00
35151;BME280;55720;51.972;4.624;2022-12-22T00:29:02;100711.16;;;8.92;100.00
35151;BME280;55720;51.972;4.624;2022-12-22T00:31:47;100721.44;;;8.95;100.00
35151;BME280;55720;51.972;4.624;2022-12-22T00:34:39;100717.91;;;9.03;100.00
35151;BME280;55720;51.972;4.624;2022-12-22T00:37:28;100718.06;;;8.98;100.00
35151;BME280;55720;51.972;4.624;2022-12-22T00:40:18;100716.63;;;9.01;100.00
35151;BME280;55720;51.972;4.624;2022-12-22T00:43:02;100704.38;;;8.98;100.00
35151;BME280;55720;51.972;4.624;2022-12-22T00:45:46;100702.44;;;8.99;100.00
35151;BME280;55720;51.972;4.624;2022-12-22T00:48:31;100705.81;;;8.96;100.00
35151;BME280;55720;51.972;4.624;2022-12-22T00:51:16;100709.03;;;8.98;100.00
35151;BME280;55720;51.972;4.624;2022-12-22T00:54:00;100698.09;;;8.98;100.00
35151;BME280;55720;51.972;4.624;2022-12-22T00:56:44;100684.72;;;8.96;100.00
35151;BME280;55720;51.972;4.624;2022-12-22T00:59:29;100681.03;;;8.92;100.00
35151;BME280;55720;51.972;4.624;2022-12-22T01:02:13;100679.91;;;8.93;100.00
35151;BME280;55720;51.972;4.624;2022-12-22T01:04:57;100682.97;;;8.92;100.00
35151;BME280;55720;51.972;4.624;2022-12-22T01:07:41;100693.59;;;8.93;100.00
35151;BME280;55720;51.972;4.624;2022-12-22T01:10:25;100685.53;;;8.97;100.00
35151;BME280;55720;51.972;4.624;2022-12-22T01:13:13;100671.50;;;8.98;100.00
35151;BME280;55720;51.972;4.624;2022-12-22T01:15:57;100690.06;;;8.93;100.00
35151;BME280;55720;51.972;4.624;2022-12-22T01:18:42;100685.38;;;8.93;100.00
35151;BME280;55720;51.972;4.624;2022-12-22T01:21:26;100677.78;;;8.99;100.00
35151;BME280;55720;51.972;4.624;2022-12-22T01:24:14;100673.94;;;9.00;100.00
35151;BME280;55720;51.972;4.624;2022-12-22T01:26:59;100672.97;;;8.96;100.00
35151;BME280;55720;51.972;4.624;2022-12-22T01:29:46;100679.88;;;9.02;100.00
35151;BME280;55720;51.972;4.624;2022-12-22T01:32:33;100676.66;;;9.00;100.00
35151;BME280;55720;51.972;4.624;2022-12-22T01:35:23;100663.13;;;9.03;100.00
35151;BME280;55720;51.972;4.624;2022-12-22T01:38:08;100671.00;;;9.05;100.00
35151;BME280;55720;51.972;4.624;2022-12-22T01:40:53;100670.38;;;9.08;100.00
35151;BME280;55720;51.972;4.624;2022-12-22T01:43:38;100675.19;;;9.11;100.00
35151;BME280;55720;51.972;4.624;2022-12-22T01:46:42;100673.56;;;9.10;100.00
35151;BME280;55720;51.972;4.624;2022-12-22T01:49:45;100677.28;;;9.14;100.00
35151;BME280;55720;51.972;4.624;2022-12-22T01:52:31;100678.09;;;9.14;100.00
35151;BME280;55720;51.972;4.624;2022-12-22T01:55:21;100680.63;;;9.19;100.00
35151;BME280;55720;51.972;4.624;2022-12-22T01:58:19;100681.13;;;9.21;100.00
35151;BME280;55720;51.972;4.624;2022-12-22T02:01:04;100679.66;;;9.15;100.00
35151;BME280;55720;51.972;4.624;2022-12-22T02:03:48;100675.81;;;9.16;100.00
35151;BME280;55720;51.972;4.624;2022-12-22T02:06:38;100676.91;;;9.24;100.00
35151;BME280;55720;51.972;4.624;2022-12-22T02:09:48;100675.50;;;9.18;100.00
35151;BME280;55720;51.972;4.624;2022-12-22T02:21:24;100673.56;;;9.18;100.00
35151;BME280;55720;51.972;4.624;2022-12-22T02:27:10;100669.53;;;9.16;100.00
35151;BME280;55720;51.972;4.624;2022-12-22T02:29:59;100669.66;;;9.19;100.00
35151;BME280;55720;51.972;4.624;2022-12-22T02:32:45;100663.06;;;9.20;100.00
35151;BME280;55720;51.972;4.624;2022-12-22T02:35:59;100663.56;;;9.22;100.00
35151;BME280;55720;51.972;4.624;2022-12-22T02:44:49;100655.50;;;9.17;100.00
35151;BME280;55720;51.972;4.624;2022-12-22T02:48:10;100647.16;;;9.14;100.00
35151;BME280;55720;51.972;4.624;2022-12-22T02:53:46;100649.88;;;9.14;100.00
35151;BME280;55720;51.972;4.624;2022-12-22T02:56:30;100646.66;;;9.12;100.00
35151;BME280;55720;51.972;4.624;2022-12-22T02:59:14;100635.69;;;9.12;100.00
35151;BME280;55720;51.972;4.624;2022-12-22T03:01:58;100644.06;;;9.15;100.00
35151;BME280;55720;51.972;4.624;2022-12-22T03:08:04;100637.47;;;9.16;100.00
35151;BME280;55720;51.972;4.624;2022-12-22T03:10:47;100643.44;;;9.18;100.00
35151;BME280;55720;51.972;4.624;2022-12-22T03:13:31;100637.00;;;9.14;100.00
35151;BME280;55720;51.972;4.624;2022-12-22T03:16:15;100635.84;;;9.15;100.00
35151;BME280;55720;51.972;4.624;2022-12-22T03:19:00;100639.59;;;9.11;100.00
35151;BME280;55720;51.972;4.624;2022-12-22T03:21:43;100637.47;;;9.16;100.00
35151;BME280;55720;51.972;4.624;2022-12-22T03:24:27;100643.44;;;9.18;100.00
35151;BME280;55720;51.972;4.624;2022-12-22T03:27:11;100641.81;;;9.17;100.00
35151;BME280;55720;51.972;4.624;2022-12-22T03:29:39;100646.31;;;9.22;100.00
35151;BME280;55720;51.972;4.624;2022-12-22T03:32:07;100636.94;;;9.23;100.00
35151;BME280;55720;51.972;4.624;2022-12-22T03:34:38;100636.63;;;9.24;100.00
35151;BME280;55720;51.972;4.624;2022-12-22T03:37:06;100626.81;;;9.23;100.00
35151;BME280;55720;51.972;4.624;2022-12-22T03:39:32;100637.28;;;9.21;100.00
35151;BME280;55720;51.972;4.624;2022-12-22T03:41:57;100625.84;;;9.19;100.00
35151;BME280;55720;51.972;4.624;2022-12-22T03:44:41;100627.78;;;9.19;100.00
35151;BME280;55720;51.972;4.624;2022-12-22T03:47:25;100632.47;;;9.18;100.00
35151;BME280;55720;51.972;4.624;2022-12-22T03:49:51;100646.16;;;9.18;100.00
35151;BME280;55720;51.972;4.624;2022-12-22T03:52:16;100637.28;;;9.21;100.00
35151;BME280;55720;51.972;4.624;2022-12-22T03:54:41;100640.50;;;9.23;100.00
35151;BME280;55720;51.972;4.624;2022-12-22T03:57:07;100649.22;;;9.17;100.00
35151;BME280;55720;51.972;4.624;2022-12-22T03:59:32;100655.22;;;9.10;100.00
35151;BME280;55720;51.972;4.624;2022-12-22T04:01:57;100657.16;;;9.10;100.00
35151;BME280;55720;51.972;4.624;2022-12-22T04:04:24;100655.69;;;9.12;100.00
35151;BME280;55720;51.972;4.624;2022-12-22T04:06:53;100652.63;;;9.14;100.00
35151;BME280;55720;51.972;4.624;2022-12-22T04:09:19;100655.03;;;9.15;100.00
35151;BME280;55720;51.972;4.624;2022-12-22T04:11:46;100652.94;;;9.12;100.00
35151;BME280;55720;51.972;4.624;2022-12-22T04:14:33;100655.22;;;9.10;100.00
35151;BME280;55720;51.972;4.624;2022-12-22T04:16:59;100659.06;;;9.09;100.00
35151;BME280;55720;51.972;4.624;2022-12-22T04:19:24;100658.13;;;9.05;100.00
35151;BME280;55720;51.972;4.624;2022-12-22T04:21:50;100650.19;;;9.12;100.00
35151;BME280;55720;51.972;4.624;2022-12-22T04:24:15;100660.50;;;9.15;100.00
35151;BME280;55720;51.972;4.624;2022-12-22T04:26:41;100663.59;;;9.14;100.00
35151;BME280;55720;51.972;4.624;2022-12-22T04:29:06;100653.59;;;9.18;100.00
35151;BME280;55720;51.972;4.624;2022-12-22T04:31:32;100661.81;;;9.09;100.00
35151;BME280;55720;51.972;4.624;2022-12-22T04:33:57;100658.75;;;9.11;100.00
35151;BME280;55720;51.972;4.624;2022-12-22T04:36:23;100667.44;;;9.13;100.00
35151;BME280;55720;51.972;4.624;2022-12-22T04:38:48;100661.16;;;9.12;100.00
35151;BME280;55720;51.972;4.624;2022-12-22T04:41:13;100655.53;;;9.09;100.00
35151;BME280;55720;51.972;4.624;2022-12-22T04:43:39;100670.84;;;9.10;100.00
35151;BME280;55720;51.972;4.624;2022-12-22T04:46:04;100681.66;;;9.06;100.00
35151;BME280;55720;51.972;4.624;2022-12-22T04:48:31;100683.91;;;9.04;100.00
35151;BME280;55720;51.972;4.624;2022-12-22T04:50:58;100683.91;;;9.04;100.00
35151;BME280;55720;51.972;4.624;2022-12-22T04:53:25;100685.50;;;9.05;100.00
35151;BME280;55720;51.972;4.624;2022-12-22T04:55:56;100688.59;;;9.04;100.00
35151;BME280;55720;51.972;4.624;2022-12-22T04:58:21;100684.06;;;8.99;100.00
35151;BME280;55720;51.972;4.624;2022-12-22T05:00:47;100683.28;;;8.99;100.00
35151;BME280;55720;51.972;4.624;2022-12-22T05:03:12;100693.09;;;9.00;100.00
35151;BME280;55720;51.972;4.624;2022-12-22T05:05:38;100680.38;;;8.95;100.00
35151;BME280;55720;51.972;4.624;2022-12-22T05:08:06;100688.28;;;8.97;100.00
35151;BME280;55720;51.972;4.624;2022-12-22T05:10:32;100691.66;;;8.94;100.00
35151;BME280;55720;51.972;4.624;2022-12-22T05:13:00;100695.53;;;8.93;100.00
35151;BME280;55720;51.972;4.624;2022-12-22T05:15:33;100707.44;;;8.97;100.00
35151;BME280;55720;51.972;4.624;2022-12-22T05:18:18;100703.25;;;8.90;100.00
35151;BME280;55720;51.972;4.624;2022-12-22T05:20:43;100710.50;;;8.95;100.00
35151;BME280;55720;51.972;4.624;2022-12-22T05:23:11;100714.19;;;8.90;100.00
35151;BME280;55720;51.972;4.624;2022-12-22T05:25:37;100719.22;;;8.88;100.00
35151;BME280;55720;51.972;4.624;2022-12-22T05:28:02;100730.50;;;8.78;100.00
35151;BME280;55720;51.972;4.624;2022-12-22T05:30:28;100735.47;;;8.76;100.00
35151;BME280;55720;51.972;4.624;2022-12-22T05:32:53;100730.19;;;8.71;100.00
35151;BME280;55720;51.972;4.624;2022-12-22T05:35:19;100742.41;;;8.74;100.00
35151;BME280;55720;51.972;4.624;2022-12-22T05:37:44;100745.28;;;8.69;100.00
35151;BME280;55720;51.972;4.624;2022-12-22T05:40:10;100750.28;;;8.58;100.00
35151;BME280;55720;51.972;4.624;2022-12-22T05:42:36;100749.66;;;8.53;100.00
35151;BME280;55720;51.972;4.624;2022-12-22T05:45:06;100738.50;;;8.40;100.00
35151;BME280;55720;51.972;4.624;2022-12-22T05:47:32;100746.03;;;8.26;100.00
35151;BME280;55720;51.972;4.624;2022-12-22T05:49:57;100742.94;;;8.11;100.00
35151;BME280;55720;51.972;4.624;2022-12-22T05:52:23;100730.84;;;8.03;100.00
35151;BME280;55720;51.972;4.624;2022-12-22T05:54:48;100732.28;;;8.01;100.00
35151;BME280;55720;51.972;4.624;2022-12-22T05:57:13;100734.56;;;8.07;100.00
35151;BME280;55720;51.972;4.624;2022-12-22T05:59:39;100737.28;;;8.07;100.00
35151;BME280;55720;51.972;4.624;2022-12-22T06:02:07;100730.72;;;8.08;100.00
35151;BME280;55720;51.972;4.624;2022-12-22T06:04:35;100733.75;;;8.07;100.00
35151;BME280;55720;51.972;4.624;2022-12-22T06:07:01;100744.06;;;8.10;100.00
35151;BME280;55720;51.972;4.624;2022-12-22T06:09:26;100750.19;;;8.15;100.00
35151;BME280;55720;51.972;4.624;2022-12-22T06:11:51;100755.81;;;8.19;100.00
35151;BME280;55720;51.972;4.624;2022-12-22T06:14:17;100756.94;;;8.18;100.00
35151;BME280;55720;51.972;4.624;2022-12-22T06:16:42;100761.47;;;8.22;100.00
35151;BME280;55720;51.972;4.624;2022-12-22T06:19:08;100765.97;;;8.18;100.00
35151;BME280;55720;51.972;4.624;2022-12-22T06:21:33;100774.97;;;8.19;100.00
35151;BME280;55720;51.972;4.624;2022-12-22T06:24:01;100772.41;;;8.22;100.00
35151;BME280;55720;51.972;4.624;2022-12-22T06:26:31;100781.72;;;8.21;100.00
35151;BME280;55720;51.972;4.624;2022-12-22T06:28:56;100783.47;;;8.09;100.00
35151;BME280;55720;51.972;4.624;2022-12-22T06:31:22;100789.75;;;8.09;100.00
35151;BME280;55720;51.972;4.624;2022-12-22T06:33:47;100793.91;;;8.07;100.00
35151;BME280;55720;51.972;4.624;2022-12-22T06:36:19;100799.56;;;8.10;100.00
35151;BME280;55720;51.972;4.624;2022-12-22T06:38:44;100801.94;;;8.03;100.00
35151;BME280;55720;51.972;4.624;2022-12-22T06:41:13;100801.47;;;8.01;100.00
35151;BME280;55720;51.972;4.624;2022-12-22T06:43:58;100806.41;;;7.90;100.00
35151;BME280;55720;51.972;4.624;2022-12-22T06:46:23;100799.13;;;7.86;100.00
35151;BME280;55720;51.972;4.624;2022-12-22T06:48:49;100804.41;;;7.74;100.00
35151;BME280;55720;51.972;4.624;2022-12-22T06:51:14;100813.66;;;7.64;100.00
35151;BME280;55720;51.972;4.624;2022-12-22T06:53:39;100822.59;;;7.56;100.00
35151;BME280;55720;51.972;4.624;2022-12-22T06:56:05;100821.47;;;7.49;100.00
35151;BME280;55720;51.972;4.624;2022-12-22T06:58:31;100827.34;;;7.42;100.00
35151;BME280;55720;51.972;4.624;2022-12-22T07:00:56;100816.75;;;7.40;100.00
35151;BME280;55720;51.972;4.624;2022-12-22T07:03:21;100817.84;;;7.39;100.00
35151;BME280;55720;51.972;4.624;2022-12-22T07:05:47;100813.47;;;7.30;100.00
35151;BME280;55720;51.972;4.624;2022-12-22T07:08:12;100811.38;;;7.27;100.00
35151;BME280;55720;51.972;4.624;2022-12-22T07:10:38;100824.31;;;7.21;100.00
35151;BME280;55720;51.972;4.624;2022-12-22T07:13:23;100840.31;;;7.14;100.00
35151;BME280;55720;51.972;4.624;2022-12-22T07:15:49;100846.53;;;7.06;100.00
35151;BME280;55720;51.972;4.624;2022-12-22T07:18:19;100847.47;;;7.02;100.00
35151;BME280;55720;51.972;4.624;2022-12-22T07:20:45;100843.53;;;6.94;100.00
35151;BME280;55720;51.972;4.624;2022-12-22T07:23:11;100839.28;;;6.88;100.00
35151;BME280;55720;51.972;4.624;2022-12-22T07:25:36;100842.59;;;6.76;100.00
35151;BME280;55720;51.972;4.624;2022-12-22T07:28:02;100850.66;;;6.68;100.00
35151;BME280;55720;51.972;4.624;2022-12-22T07:30:28;100865.53;;;6.62;100.00
35151;BME280;55720;51.972;4.624;2022-12-22T07:32:58;100862.41;;;6.55;100.00
35151;BME280;55720;51.972;4.624;2022-12-22T07:35:23;100879.38;;;6.38;100.00
35151;BME280;55720;51.972;4.624;2022-12-22T07:37:49;100877.06;;;6.31;100.00
35151;BME280;55720;51.972;4.624;2022-12-22T07:40:15;100892.50;;;6.22;100.00
35151;BME280;55720;51.972;4.624;2022-12-22T07:42:40;100892.63;;;6.17;100.00
35151;BME280;55720;51.972;4.624;2022-12-22T07:45:10;100886.63;;;6.15;100.00
35151;BME280;55720;51.972;4.624;2022-12-22T07:47:35;100891.31;;;6.15;100.00
35151;BME280;55720;51.972;4.624;2022-12-22T07:50:01;100893.03;;;6.24;100.00
35151;BME280;55720;51.972;4.624;2022-12-22T07:52:44;100889.78;;;6.22;100.00
35151;BME280;55720;51.972;4.624;2022-12-22T07:55:10;100890.91;;;6.21;100.00
35151;BME280;55720;51.972;4.624;2022-12-22T07:57:35;100893.50;;;6.26;100.00
35151;BME280;55720;51.972;4.624;2022-12-22T08:00:01;100893.84;;;6.25;100.00
35151;BME280;55720;51.972;4.624;2022-12-22T08:02:26;100896.75;;;6.28;100.00
35151;BME280;55720;51.972;4.624;2022-12-22T08:04:52;100902.41;;;6.32;100.00
35151;BME280;55720;51.972;4.624;2022-12-22T08:07:17;100905.84;;;6.37;100.00
35151;BME280;55720;51.972;4.624;2022-12-22T08:09:45;100899.19;;;6.43;100.00
35151;BME280;55720;51.972;4.624;2022-12-22T08:12:10;100899.28;;;6.52;100.00
35151;BME280;55720;51.972;4.624;2022-12-22T08:14:35;100902.22;;;6.56;100.00
35151;BME280;55720;51.972;4.624;2022-12-22T08:17:27;100906.28;;;6.58;100.00
35151;BME280;55720;51.972;4.624;2022-12-22T08:19:55;100924.63;;;6.66;100.00
35151;BME280;55720;51.972;4.624;2022-12-22T08:22:21;100922.63;;;6.72;100.00
35151;BME280;55720;51.972;4.624;2022-12-22T08:24:49;100930.69;;;6.77;100.00
35151;BME280;55720;51.972;4.624;2022-12-22T08:27:16;100934.63;;;6.71;100.00
35151;BME280;55720;51.972;4.624;2022-12-22T08:29:49;100924.22;;;6.73;100.00
35151;BME280;55720;51.972;4.624;2022-12-22T08:32:19;100938.88;;;6.63;100.00
35151;BME280;55720;51.972;4.624;2022-12-22T08:34:48;100948.56;;;6.56;100.00
35151;BME280;55720;51.972;4.624;2022-12-22T08:37:17;100944.75;;;6.57;100.00
35151;BME280;55720;51.972;4.624;2022-12-22T08:39:45;100952.22;;;6.51;100.00
35151;BME280;55720;51.972;4.624;2022-12-22T08:42:13;100948.19;;;6.49;100.00
35151;BME280;55720;51.972;4.624;2022-12-22T08:44:41;100941.28;;;6.51;100.00
35151;BME280;55720;51.972;4.624;2022-12-22T08:47:07;100953.34;;;6.50;100.00
35151;BME280;55720;51.972;4.624;2022-12-22T08:49:32;100951.91;;;6.53;100.00
35151;BME280;55720;51.972;4.624;2022-12-22T08:51:59;100950.28;;;6.52;100.00
35151;BME280;55720;51.972;4.624;2022-12-22T08:54:24;100959.41;;;6.61;100.00
35151;BME280;55720;51.972;4.624;2022-12-22T08:56:49;100952.31;;;6.73;100.00
35151;BME280;55720;51.972;4.624;2022-12-22T08:59:18;100946.88;;;6.87;100.00
35151;BME280;55720;51.972;4.624;2022-12-22T09:01:44;100952.31;;;6.87;100.00
35151;BME280;55720;51.972;4.624;2022-12-22T09:04:14;100946.25;;;6.90;100.00
35151;BME280;55720;51.972;4.624;2022-12-22T09:06:41;100936.94;;;6.91;100.00
35151;BME280;55720;51.972;4.624;2022-12-22T09:09:09;100952.53;;;6.90;100.00
35151;BME280;55720;51.972;4.624;2022-12-22T09:11:35;100958.78;;;6.91;100.00
35151;BME280;55720;51.972;4.624;2022-12-22T09:14:02;100960.91;;;6.94;100.00
35151;BME280;55720;51.972;4.624;2022-12-22T09:16:32;100973.34;;;7.00;100.00
35151;BME280;55720;51.972;4.624;2022-12-22T09:18:58;100961.69;;;7.08;100.00
35151;BME280;55720;51.972;4.624;2022-12-22T09:21:24;100948.25;;;7.12;100.00
35151;BME280;55720;51.972;4.624;2022-12-22T09:23:50;100955.72;;;7.20;100.00
35151;BME280;55720;51.972;4.624;2022-12-22T09:26:20;100961.06;;;7.25;100.00
35151;BME280;55720;51.972;4.624;2022-12-22T09:28:46;100954.47;;;7.26;100.00
35151;BME280;55720;51.972;4.624;2022-12-22T09:31:15;100951.94;;;7.29;100.00
35151;BME280;55720;51.972;4.624;2022-12-22T09:33:40;100962.81;;;7.43;100.00
35151;BME280;55720;51.972;4.624;2022-12-22T09:36:11;100960.78;;;7.49;100.00
35151;BME280;55720;51.972;4.624;2022-12-22T09:38:38;100963.72;;;7.52;100.00
35151;BME280;55720;51.972;4.624;2022-12-22T09:41:09;100964.47;;;7.66;100.00
35151;BME280;55720;51.972;4.624;2022-12-22T09:43:41;100973.16;;;7.68;100.00
35151;BME280;55720;51.972;4.624;2022-12-22T09:46:39;100973.41;;;7.80;100.00
35151;BME280;55720;51.972;4.624;2022-12-22T09:49:05;100974.72;;;7.83;100.00
35151;BME280;55720;51.972;4.624;2022-12-22T09:51:39;100987.31;;;7.92;100.00
35151;BME280;55720;51.972;4.624;2022-12-22T09:54:08;101002.78;;;7.97;100.00
35151;BME280;55720;51.972;4.624;2022-12-22T09:56:35;101001.72;;;8.07;100.00
35151;BME280;55720;51.972;4.624;2022-12-22T09:59:00;101004.22;;;8.17;100.00
35151;BME280;55720;51.972;4.624;2022-12-22T10:01:47;101014.09;;;8.26;100.00
35151;BME280;55720;51.972;4.624;2022-12-22T10:07:15;101023.50;;;8.34;100.00
35151;BME280;55720;51.972;4.624;2022-12-22T10:09:43;101037.50;;;8.32;100.00
35151;BME280;55720;51.972;4.624;2022-12-22T10:12:17;101032.25;;;8.45;100.00
35151;BME280;55720;51.972;4.624;2022-12-22T10:14:46;101031.97;;;8.46;100.00
35151;BME280;55720;51.972;4.624;2022-12-22T10:17:27;101044.56;;;8.56;100.00
35151;BME280;55720;51.972;4.624;2022-12-22T10:20:06;101052.56;;;8.74;100.00
35151;BME280;55720;51.972;4.624;2022-12-22T10:22:38;101054.19;;;8.84;100.00
35151;BME280;55720;51.972;4.624;2022-12-22T10:25:31;101062.81;;;9.00;100.00
35151;BME280;55720;51.972;4.624;2022-12-22T10:27:59;101063.78;;;9.04;100.00
35151;BME280;55720;51.972;4.624;2022-12-22T10:30:31;101068.63;;;9.07;100.00
35151;BME280;55720;51.972;4.624;2022-12-22T10:33:10;101071.91;;;9.17;100.00
35151;BME280;55720;51.972;4.624;2022-12-22T10:43:38;101072.94;;;9.47;100.00
35151;BME280;55720;51.972;4.624;2022-12-22T10:46:06;101074.25;;;9.58;100.00
35151;BME280;55720;51.972;4.624;2022-12-22T10:48:35;101076.19;;;9.58;100.00
35151;BME280;55720;51.972;4.624;2022-12-22T10:51:04;101074.75;;;9.60;100.00
35151;BME280;55720;51.972;4.624;2022-12-22T10:56:25;101056.03;;;9.88;100.00
35151;BME280;55720;51.972;4.624;2022-12-22T10:59:12;101040.41;;;9.97;100.00
35151;BME280;55720;51.972;4.624;2022-12-22T11:01:41;101017.66;;;9.88;100.00
35151;BME280;55720;51.972;4.624;2022-12-22T11:04:36;101005.56;;;9.98;100.00
35151;BME280;55720;51.972;4.624;2022-12-22T11:07:07;100985.06;;;10.12;100.00
35151;BME280;55720;51.972;4.624;2022-12-22T11:09:33;100949.22;;;10.09;100.00
35151;BME280;55720;51.972;4.624;2022-12-22T11:17:37;100845.91;;;9.75;100.00
35151;BME280;55720;51.972;4.624;2022-12-22T11:25:57;100750.31;;;9.56;100.00
35151;BME280;55720;51.972;4.624;2022-12-22T11:37:53;100654.16;;;8.17;100.00
35151;BME280;55720;51.972;4.624;2022-12-22T11:40:42;100648.34;;;8.01;100.00
35151;BME280;55720;51.972;4.624;2022-12-22T11:43:25;100647.69;;;7.87;100.00
35151;BME280;55720;51.972;4.624;2022-12-22T11:46:26;100636.81;;;7.48;100.00
35151;BME280;55720;51.972;4.624;2022-12-22T12:00:09;100655.59;;;7.40;100.00
35151;BME280;55720;51.972;4.624;2022-12-22T12:03:04;100646.63;;;7.49;100.00
35151;BME280;55720;51.972;4.624;2022-12-22T12:08:24;100638.13;;;7.67;100.00
35151;BME280;55720;51.972;4.624;2022-12-22T12:11:05;100641.50;;;7.56;100.00
35151;BME280;55720;51.972;4.624;2022-12-22T12:21:52;100630.75;;;7.68;100.00
35151;BME280;55720;51.972;4.624;2022-12-22T12:28:11;100610.50;;;7.69;100.00
35151;BME280;55720;51.972;4.624;2022-12-22T12:30:53;100607.63;;;7.82;100.00
35151;BME280;55720;51.972;4.624;2022-12-22T12:33:44;100597.03;;;7.89;100.00
35151;BME280;55720;51.972;4.624;2022-12-22T12:39:11;100580.31;;;8.00;100.00
35151;BME280;55720;51.972;4.624;2022-12-22T12:44:35;100555.22;;;7.98;100.00
35151;BME280;55720;51.972;4.624;2022-12-22T12:47:19;100547.50;;;8.00;100.00
35151;BME280;55720;51.972;4.624;2022-12-22T12:50:03;100530.94;;;8.13;100.00
35151;BME280;55720;51.972;4.624;2022-12-22T12:57:56;100487.97;;;8.22;100.00
35151;BME280;55720;51.972;4.624;2022-12-22T13:03:08;100461.75;;;8.30;100.00
35151;BME280;55720;51.972;4.624;2022-12-22T13:05:53;100443.53;;;8.25;100.00
35151;BME280;55720;51.972;4.624;2022-12-22T13:08:31;100427.81;;;8.31;100.00
35151;BME280;55720;51.972;4.624;2022-12-22T13:23:33;100346.84;;;8.38;100.00
35151;BME280;55720;51.972;4.624;2022-12-22T13:26:21;100340.00;;;8.53;100.00
35151;BME280;55720;51.972;4.624;2022-12-22T13:32:11;100300.31;;;8.68;100.00
35151;BME280;55720;51.972;4.624;2022-12-22T13:34:43;100281.75;;;8.73;100.00
35151;BME280;55720;51.972;4.624;2022-12-22T13:39:41;100241.63;;;8.77;100.00
35151;BME280;55720;51.972;4.624;2022-12-22T13:42:11;100237.13;;;8.94;100.00
35151;BME280;55720;51.972;4.624;2022-12-22T13:44:37;100220.63;;;9.02;100.00
35151;BME280;55720;51.972;4.624;2022-12-22T13:47:06;100200.22;;;9.00;100.00
35151;BME280;55720;51.972;4.624;2022-12-22T13:49:33;100186.41;;;9.08;100.00
35151;BME280;55720;51.972;4.624;2022-12-22T13:52:02;100157.41;;;8.95;100.00
35151;BME280;55720;51.972;4.624;2022-12-22T13:54:35;100143.91;;;8.90;100.00
35151;BME280;55720;51.972;4.624;2022-12-22T13:57:04;100126.78;;;8.81;100.00
35151;BME280;55720;51.972;4.624;2022-12-22T13:59:42;100116.59;;;8.69;100.00
35151;BME280;55720;51.972;4.624;2022-12-22T14:04:38;100111.09;;;8.57;100.00
35151;BME280;55720;51.972;4.624;2022-12-22T14:09:36;100103.28;;;8.68;100.00
35151;BME280;55720;51.972;4.624;2022-12-22T14:14:33;100109.75;;;8.63;100.00
35151;BME280;55720;51.972;4.624;2022-12-22T14:16:59;100106.53;;;8.61;100.00
35151;BME280;55720;51.972;4.624;2022-12-22T14:19:32;100117.22;;;8.75;100.00
35151;BME280;55720;51.972;4.624;2022-12-22T14:22:13;100116.47;;;8.66;100.00
35151;BME280;55720;51.972;4.624;2022-12-22T14:24:45;100123.72;;;8.50;100.00
35151;BME280;55720;51.972;4.624;2022-12-22T14:27:20;100140.88;;;8.38;100.00
35151;BME280;55720;51.972;4.624;2022-12-22T14:29:49;100151.59;;;8.43;100.00
35151;BME280;55720;51.972;4.624;2022-12-22T14:35:01;100182.97;;;8.46;100.00
35151;BME280;55720;51.972;4.624;2022-12-22T14:37:26;100203.53;;;8.52;100.00
35151;BME280;55720;51.972;4.624;2022-12-22T14:39:55;100207.06;;;8.52;100.00
35151;BME280;55720;51.972;4.624;2022-12-22T14:42:21;100204.59;;;8.38;100.00
35151;BME280;55720;51.972;4.624;2022-12-22T14:44:47;100212.94;;;8.42;100.00
35151;BME280;55720;51.972;4.624;2022-12-22T14:47:17;100228.28;;;8.34;100.00
35151;BME280;55720;51.972;4.624;2022-12-22T14:52:19;100253.50;;;8.40;100.00
35151;BME280;55720;51.972;4.624;2022-12-22T14:54:47;100253.16;;;8.42;100.00
35151;BME280;55720;51.972;4.624;2022-12-22T15:05:56;100320.16;;;8.35;100.00
35151;BME280;55720;51.972;4.624;2022-12-22T15:08:41;100322.22;;;8.38;100.00
35151;BME280;55720;51.972;4.624;2022-12-22T15:11:16;100323.81;;;8.39;100.00
35151;BME280;55720;51.972;4.624;2022-12-22T15:13:44;100328.53;;;8.30;100.00
35151;BME280;55720;51.972;4.624;2022-12-22T15:16:20;100347.03;;;8.33;100.00
35151;BME280;55720;51.972;4.624;2022-12-22T15:18:47;100348.63;;;8.26;100.00
35151;BME280;55720;51.972;4.624;2022-12-22T15:21:15;100374.88;;;8.35;100.00
35151;BME280;55720;51.972;4.624;2022-12-22T15:23:41;100376.31;;;8.24;100.00
35151;BME280;55720;51.972;4.624;2022-12-22T15:26:07;100380.50;;;8.22;100.00
35151;BME280;55720;51.972;4.624;2022-12-22T15:28:33;100390.81;;;8.16;100.00
35151;BME280;55720;51.972;4.624;2022-12-22T15:31:03;100394.69;;;8.15;100.00
35151;BME280;55720;51.972;4.624;2022-12-22T15:33:31;100412.34;;;8.18;100.00
35151;BME280;55720;51.972;4.624;2022-12-22T15:35:56;100353.16;;;8.22;100.00
35151;BME280;55720;51.972;4.624;2022-12-22T15:38:23;100375.53;;;8.24;100.00
35151;BME280;55720;51.972;4.624;2022-12-22T15:40:52;100379.09;;;8.16;100.00